createdAt,value
2024-03-08T00:00:07.866Z,41.83
2024-03-08T00:01:14.678Z,32.59
2024-03-08T00:02:21.529Z,26.47
2024-03-08T00:03:28.343Z,20.72
2024-03-08T00:04:35.199Z,12.21
2024-03-08T00:05:42.070Z,9.46
2024-03-08T00:06:48.911Z,7.21
2024-03-08T00:07:55.732Z,6.50
2024-03-08T00:09:02.598Z,5.62
2024-03-08T00:10:09.478Z,6.14
2024-03-08T00:11:16.341Z,5.64
2024-03-08T00:12:23.255Z,7.15
2024-03-08T00:13:30.193Z,6.82
2024-03-08T00:14:37.043Z,6.78
2024-03-08T00:15:43.908Z,6.92
2024-03-08T00:16:50.768Z,10.53
2024-03-08T00:17:57.712Z,13.21
2024-03-08T00:19:04.596Z,17.39
2024-03-08T00:20:11.479Z,21.04
2024-03-08T00:21:18.325Z,39.31
2024-03-08T00:22:25.237Z,61.54
2024-03-08T00:23:32.193Z,56.89
2024-03-08T00:24:39.008Z,33.42
2024-03-08T00:25:45.836Z,16.30
2024-03-08T00:26:52.778Z,10.46
2024-03-08T00:27:59.660Z,10.93
2024-03-08T00:29:06.482Z,9.50
2024-03-08T00:30:13.326Z,10.71
2024-03-08T00:31:20.150Z,11.55
2024-03-08T00:32:27.002Z,11.57
2024-03-08T00:33:33.920Z,9.82
2024-03-08T00:34:40.843Z,7.01
2024-03-08T00:35:47.676Z,5.30
2024-03-08T00:36:54.461Z,5.86
2024-03-08T00:38:01.337Z,5.56
2024-03-08T00:39:08.314Z,5.59
2024-03-08T00:40:15.304Z,4.97
2024-03-08T00:41:22.124Z,5.00
2024-03-08T00:42:28.949Z,4.95
2024-03-08T00:43:35.827Z,4.81
2024-03-08T00:44:42.717Z,4.19
2024-03-08T00:45:49.506Z,5.19
2024-03-08T00:46:56.323Z,5.18
2024-03-08T00:48:03.231Z,4.68
2024-03-08T00:49:10.268Z,4.90
2024-03-08T00:50:17.143Z,5.62
2024-03-08T00:51:23.986Z,7.34
2024-03-08T00:52:30.807Z,8.59
2024-03-08T00:53:37.682Z,8.06
2024-03-08T00:54:45.116Z,5.42
2024-03-08T00:55:52.032Z,4.13
2024-03-08T00:56:58.907Z,6.25
2024-03-08T00:58:05.721Z,10.03
2024-03-08T00:59:12.585Z,20.53
2024-03-08T01:00:19.503Z,35.83
2024-03-08T01:01:26.382Z,55.61
2024-03-08T01:02:33.186Z,69.50
2024-03-08T01:03:40.000Z,79.31
2024-03-08T01:04:46.863Z,78.41
2024-03-08T01:05:53.707Z,69.90
2024-03-08T01:07:00.738Z,81.29
2024-03-08T01:08:07.702Z,75.94
2024-03-08T01:09:14.572Z,69.47
2024-03-08T01:10:21.355Z,68.24
2024-03-08T01:11:28.288Z,55.61
2024-03-08T01:12:35.155Z,40.38
2024-03-08T01:13:41.942Z,34.05
2024-03-08T01:14:48.783Z,26.73
2024-03-08T01:15:55.693Z,19.96
2024-03-08T01:17:02.640Z,14.98
2024-03-08T01:18:09.579Z,11.40
2024-03-08T01:19:16.478Z,9.27
2024-03-08T01:20:23.258Z,7.88
2024-03-08T01:21:30.073Z,8.27
2024-03-08T01:22:36.945Z,8.52
2024-03-08T01:23:43.825Z,8.73
2024-03-08T01:24:50.619Z,9.37
2024-03-08T01:25:57.428Z,9.58
2024-03-08T01:27:04.305Z,8.07
2024-03-08T01:28:11.168Z,8.76
2024-03-08T01:29:18.048Z,8.44
2024-03-08T01:30:24.853Z,8.34
2024-03-08T01:31:31.636Z,7.90
2024-03-08T01:32:38.567Z,8.46
2024-03-08T01:33:45.574Z,7.75
2024-03-08T01:34:52.518Z,8.28
2024-03-08T01:35:59.357Z,8.55
2024-03-08T01:37:06.165Z,8.88
2024-03-08T01:38:12.939Z,9.29
2024-03-08T01:39:19.842Z,10.27
2024-03-08T01:40:26.713Z,10.47
2024-03-08T01:41:33.551Z,12.11
2024-03-08T01:42:40.397Z,13.31
2024-03-08T01:43:47.171Z,12.69
2024-03-08T01:44:54.011Z,13.73
2024-03-08T01:46:00.843Z,11.97
2024-03-08T01:47:07.658Z,12.07
2024-03-08T01:48:14.570Z,10.84
2024-03-08T01:49:21.411Z,9.18
2024-03-08T01:50:28.346Z,9.59
2024-03-08T01:51:35.155Z,9.12
2024-03-08T01:52:41.955Z,11.78
2024-03-08T01:53:48.844Z,13.85
2024-03-08T01:54:55.756Z,21.05
2024-03-08T01:56:02.619Z,31.58
2024-03-08T01:57:09.497Z,37.61
2024-03-08T01:58:16.329Z,47.26
2024-03-08T01:59:23.117Z,54.29
2024-03-08T02:00:29.903Z,59.64
2024-03-08T02:01:36.769Z,67.56
2024-03-08T02:02:43.619Z,68.53
2024-03-08T02:03:50.419Z,70.51
2024-03-08T02:04:57.214Z,74.16
2024-03-08T02:06:04.086Z,76.59
2024-03-08T02:07:11.472Z,67.28
2024-03-08T02:08:18.410Z,69.02
2024-03-08T02:09:25.263Z,63.33
2024-03-08T02:10:32.061Z,61.23
2024-03-08T02:11:39.007Z,52.35
2024-03-08T02:12:45.948Z,58.06
2024-03-08T02:13:52.797Z,64.52
2024-03-08T02:14:59.719Z,69.10
2024-03-08T02:16:06.520Z,57.40
2024-03-08T02:17:13.379Z,45.08
2024-03-08T02:18:20.366Z,33.39
2024-03-08T02:19:27.153Z,27.47
2024-03-08T02:20:33.974Z,23.07
2024-03-08T02:21:40.813Z,20.46
2024-03-08T02:22:47.636Z,19.15
2024-03-08T02:23:54.541Z,17.11
2024-03-08T02:25:01.377Z,14.86
2024-03-08T02:26:08.132Z,12.96
2024-03-08T02:27:15.027Z,11.36
2024-03-08T02:28:21.882Z,11.43
2024-03-08T02:29:28.774Z,11.93
2024-03-08T02:30:35.560Z,11.16
2024-03-08T02:31:42.376Z,10.91
2024-03-08T02:32:49.237Z,11.94
2024-03-08T02:33:56.103Z,12.23
2024-03-08T02:35:02.994Z,13.29
2024-03-08T02:36:09.914Z,12.02
2024-03-08T02:37:16.704Z,12.31
2024-03-08T02:38:23.605Z,12.17
2024-03-08T02:39:30.469Z,12.81
2024-03-08T02:40:37.339Z,13.55
2024-03-08T02:41:44.213Z,16.03
2024-03-08T02:42:50.982Z,19.83
2024-03-08T02:43:57.821Z,25.00
2024-03-08T02:45:04.662Z,29.72
2024-03-08T02:46:11.475Z,33.13
2024-03-08T02:47:18.319Z,40.11
2024-03-08T02:48:25.214Z,37.38
2024-03-08T02:49:32.048Z,43.37
2024-03-08T02:50:38.857Z,43.58
2024-03-08T02:51:45.716Z,49.05
2024-03-08T02:52:52.561Z,47.35
2024-03-08T02:53:59.371Z,41.54
2024-03-08T02:55:06.178Z,35.43
2024-03-08T02:56:13.079Z,22.79
2024-03-08T02:57:19.995Z,19.51
2024-03-08T02:58:26.740Z,14.96
2024-03-08T02:59:33.577Z,12.29
2024-03-08T03:00:40.867Z,6.04
2024-03-08T03:01:47.761Z,6.53
2024-03-08T03:02:54.738Z,5.88
2024-03-08T03:04:01.641Z,6.06
2024-03-08T03:05:08.406Z,6.54
2024-03-08T03:06:15.188Z,6.69
2024-03-08T03:07:22.000Z,7.57
2024-03-08T03:08:28.887Z,8.87
2024-03-08T03:09:35.736Z,10.66
2024-03-08T03:10:42.643Z,16.30
2024-03-08T03:11:49.514Z,38.78
2024-03-08T03:12:56.335Z,53.59
2024-03-08T03:14:03.193Z,65.66
2024-03-08T03:15:10.102Z,72.17
2024-03-08T03:16:17.034Z,72.27
2024-03-08T03:17:23.827Z,74.37
2024-03-08T03:18:30.684Z,78.50
2024-03-08T03:19:37.529Z,76.85
2024-03-08T03:20:44.875Z,62.37
2024-03-08T03:21:51.806Z,49.95
2024-03-08T03:22:58.633Z,44.94
2024-03-08T03:24:05.638Z,32.97
2024-03-08T03:25:12.715Z,24.72
2024-03-08T03:26:19.576Z,20.01
2024-03-08T03:27:26.349Z,18.64
2024-03-08T03:28:33.136Z,13.07
2024-03-08T03:29:39.947Z,10.85
2024-03-08T03:30:46.765Z,11.40
2024-03-08T03:31:53.578Z,8.45
2024-03-08T03:33:00.452Z,8.29
2024-03-08T03:34:07.292Z,7.51
2024-03-08T03:35:14.096Z,6.89
2024-03-08T03:36:21.004Z,7.79
2024-03-08T03:37:27.887Z,7.90
2024-03-08T03:38:34.750Z,9.40
2024-03-08T03:39:41.517Z,7.67
2024-03-08T03:40:48.317Z,7.85
2024-03-08T03:41:55.169Z,7.88
2024-03-08T03:43:02.005Z,7.96
2024-03-08T03:44:08.817Z,7.08
2024-03-08T03:45:15.599Z,6.59
2024-03-08T03:46:22.425Z,6.44
2024-03-08T03:47:29.424Z,7.61
2024-03-08T03:48:36.320Z,6.32
2024-03-08T03:49:43.206Z,6.77
2024-03-08T03:50:50.168Z,6.45
2024-03-08T03:51:56.958Z,7.32
2024-03-08T03:53:03.786Z,7.84
2024-03-08T03:54:10.590Z,7.61
2024-03-08T03:55:17.481Z,11.29
2024-03-08T03:56:24.269Z,12.62
2024-03-08T03:57:31.055Z,13.18
2024-03-08T03:58:37.889Z,14.54
2024-03-08T03:59:44.667Z,12.55
2024-03-08T04:00:51.479Z,12.45
2024-03-08T04:01:58.301Z,12.20
2024-03-08T04:03:05.226Z,10.35
2024-03-08T04:04:12.041Z,10.50
2024-03-08T04:05:18.886Z,10.12
2024-03-08T04:06:25.689Z,12.49
2024-03-08T04:07:32.470Z,14.74
2024-03-08T04:08:39.281Z,18.24
2024-03-08T04:09:46.094Z,21.24
2024-03-08T04:10:52.834Z,26.30
2024-03-08T04:11:59.686Z,34.13
2024-03-08T04:13:06.503Z,45.69
2024-03-08T04:14:13.311Z,50.23
2024-03-08T04:15:20.154Z,65.37
2024-03-08T04:16:26.932Z,70.45
2024-03-08T04:17:33.815Z,80.19
2024-03-08T04:18:40.686Z,80.78
2024-03-08T04:19:47.519Z,84.15
2024-03-08T04:20:54.344Z,78.94
2024-03-08T04:22:01.122Z,76.24
2024-03-08T04:23:07.983Z,76.38
2024-03-08T04:24:14.821Z,80.72
2024-03-08T04:25:21.659Z,78.63
2024-03-08T04:26:28.556Z,81.41
2024-03-08T04:27:35.775Z,85.92
2024-03-08T04:28:42.740Z,80.23
2024-03-08T04:29:49.535Z,68.30
2024-03-08T04:30:56.307Z,47.72
2024-03-08T04:32:03.162Z,34.51
2024-03-08T04:33:10.077Z,21.10
2024-03-08T04:34:16.957Z,14.64
2024-03-08T04:35:23.828Z,8.76
2024-03-08T04:36:30.620Z,7.36
2024-03-08T04:37:37.526Z,7.64
2024-03-08T04:38:44.476Z,9.05
2024-03-08T04:39:51.384Z,11.40
2024-03-08T04:40:58.195Z,14.34
2024-03-08T04:42:06.576Z,18.08
2024-03-08T04:43:13.659Z,18.11
2024-03-08T04:44:20.462Z,21.16
2024-03-08T04:45:27.244Z,15.99
2024-03-08T04:46:34.051Z,17.59
2024-03-08T04:47:40.967Z,18.49
2024-03-08T04:48:48.075Z,88.84
2024-03-08T04:49:54.963Z,41.30
2024-03-08T04:51:01.839Z,20.71
2024-03-08T04:52:08.625Z,22.64
2024-03-08T04:53:15.443Z,17.01
2024-03-08T04:54:22.274Z,22.01
2024-03-08T04:55:29.071Z,30.87
2024-03-08T04:56:35.901Z,19.57
2024-03-08T04:57:42.730Z,21.33
2024-03-08T04:58:49.493Z,20.54
2024-03-08T04:59:56.379Z,24.33
2024-03-08T05:01:03.164Z,48.26
2024-03-08T05:02:09.979Z,70.57
2024-03-08T05:03:16.874Z,82.26
2024-03-08T05:04:23.800Z,82.38
2024-03-08T05:05:30.637Z,84.74
2024-03-08T05:06:37.545Z,73.35
2024-03-08T05:07:44.559Z,57.12
2024-03-08T05:08:51.397Z,50.77
2024-03-08T05:09:58.241Z,43.96
2024-03-08T05:11:05.062Z,38.58
2024-03-08T05:12:11.961Z,37.66
2024-03-08T05:13:18.756Z,34.50
2024-03-08T05:14:25.597Z,33.59
2024-03-08T05:15:32.449Z,30.38
2024-03-08T05:16:39.280Z,28.72
2024-03-08T05:17:46.207Z,27.25
2024-03-08T05:18:53.160Z,27.07
2024-03-08T05:20:00.004Z,25.91
2024-03-08T05:21:06.922Z,24.11
2024-03-08T05:22:13.854Z,25.32
2024-03-08T05:23:20.718Z,26.61
2024-03-08T05:24:27.461Z,27.01
2024-03-08T05:25:34.362Z,26.42
2024-03-08T05:26:41.199Z,25.88
2024-03-08T05:27:48.055Z,25.44
2024-03-08T05:28:54.868Z,25.19
2024-03-08T05:30:01.839Z,32.13
2024-03-08T05:31:08.653Z,126.49
2024-03-08T05:32:15.502Z,64.48
2024-03-08T05:33:22.411Z,54.25
2024-03-08T05:34:29.217Z,50.35
2024-03-08T05:35:36.098Z,41.46
2024-03-08T05:36:42.896Z,41.89
2024-03-08T05:37:49.677Z,40.35
2024-03-08T05:38:56.442Z,32.62
2024-03-08T05:40:03.270Z,25.98
2024-03-08T05:41:10.074Z,19.59
2024-03-08T05:42:17.082Z,21.24
2024-03-08T05:43:23.924Z,29.27
2024-03-08T05:44:30.741Z,21.56
2024-03-08T05:45:37.515Z,21.61
2024-03-08T05:46:44.380Z,37.50
2024-03-08T05:47:51.328Z,29.86
2024-03-08T05:48:58.375Z,24.16
2024-03-08T05:50:05.274Z,17.65
2024-03-08T05:51:12.173Z,25.90
2024-03-08T05:52:19.006Z,28.95
2024-03-08T05:53:25.823Z,28.83
2024-03-08T05:54:32.646Z,23.53
2024-03-08T05:55:39.453Z,30.48
2024-03-08T05:56:46.560Z,20.67
2024-03-08T05:57:53.428Z,23.09
2024-03-08T05:59:00.252Z,24.44
2024-03-08T06:00:07.168Z,21.43
2024-03-08T06:01:14.103Z,18.18
2024-03-08T06:02:20.897Z,12.29
2024-03-08T06:03:27.686Z,12.80
2024-03-08T06:04:34.566Z,11.88
2024-03-08T06:05:41.399Z,11.13
2024-03-08T06:06:51.398Z,15.67
2024-03-08T06:07:59.650Z,13.22
2024-03-08T06:09:06.556Z,24.60
2024-03-08T06:10:13.440Z,18.63
2024-03-08T06:11:20.269Z,29.31
2024-03-08T06:12:27.158Z,41.22
2024-03-08T06:13:33.962Z,50.11
2024-03-08T06:14:40.826Z,48.34
2024-03-08T06:15:47.658Z,42.74
2024-03-08T06:16:54.469Z,39.72
2024-03-08T06:18:01.454Z,31.30
2024-03-08T06:19:08.424Z,20.49
2024-03-08T06:20:15.411Z,11.66
2024-03-08T06:21:22.608Z,11.41
2024-03-08T06:22:29.454Z,10.26
2024-03-08T06:23:36.267Z,10.97
2024-03-08T06:24:43.036Z,22.13
2024-03-08T06:25:49.862Z,46.37
2024-03-08T06:26:56.698Z,33.48
2024-03-08T06:28:03.588Z,28.39
2024-03-08T06:29:10.352Z,24.50
2024-03-08T06:30:17.582Z,33.52
2024-03-08T06:31:24.453Z,39.15
2024-03-08T06:32:31.456Z,45.18
2024-03-08T06:33:38.320Z,36.27
2024-03-08T06:34:45.113Z,31.95
2024-03-08T06:35:52.016Z,26.64
2024-03-08T06:36:58.847Z,27.01
2024-03-08T06:38:05.672Z,31.02
2024-03-08T06:39:12.544Z,64.27
2024-03-08T06:40:19.393Z,95.85
2024-03-08T06:41:26.205Z,118.72
2024-03-08T06:42:32.988Z,117.09
2024-03-08T06:43:39.832Z,121.84
2024-03-08T06:44:46.665Z,122.40
2024-03-08T06:45:53.491Z,124.52
2024-03-08T06:47:01.130Z,124.13
2024-03-08T06:48:08.181Z,120.19
2024-03-08T06:49:14.999Z,118.63
2024-03-08T06:50:21.782Z,110.20
2024-03-08T06:51:28.602Z,112.05
2024-03-08T06:52:35.385Z,114.25
2024-03-08T06:53:42.212Z,108.39
2024-03-08T06:54:49.084Z,83.90
2024-03-08T06:55:55.895Z,91.28
2024-03-08T06:57:02.701Z,85.54
2024-03-08T06:58:09.596Z,58.81
2024-03-08T06:59:16.396Z,30.33
2024-03-08T07:00:23.337Z,24.94
2024-03-08T07:01:30.117Z,33.78
2024-03-08T07:02:36.941Z,40.46
2024-03-08T07:03:43.685Z,66.63
2024-03-08T07:04:50.464Z,100.02
2024-03-08T07:05:57.321Z,94.56
2024-03-08T07:07:04.097Z,100.37
2024-03-08T07:08:10.944Z,103.92
2024-03-08T07:09:17.883Z,85.89
2024-03-08T07:10:24.799Z,70.79
2024-03-08T07:11:31.657Z,66.11
2024-03-08T07:12:38.489Z,71.35
2024-03-08T07:13:45.307Z,63.89
2024-03-08T07:14:52.155Z,47.97
2024-03-08T07:15:58.956Z,37.30
2024-03-08T07:17:07.496Z,30.42
2024-03-08T07:18:14.497Z,29.74
2024-03-08T07:19:21.288Z,30.84
2024-03-08T07:20:28.111Z,28.13
2024-03-08T07:21:34.944Z,26.69
2024-03-08T07:22:41.779Z,23.28
2024-03-08T07:23:48.581Z,25.69
2024-03-08T07:24:55.393Z,29.08
2024-03-08T07:26:02.215Z,30.03
2024-03-08T07:27:09.074Z,37.21
2024-03-08T07:28:15.918Z,34.09
2024-03-08T07:29:22.706Z,28.60
2024-03-08T07:30:30.214Z,29.85
2024-03-08T07:31:37.127Z,25.20
2024-03-08T07:32:43.988Z,28.19
2024-03-08T07:33:51.008Z,26.20
2024-03-08T07:34:57.955Z,28.59
2024-03-08T07:36:04.813Z,24.92
2024-03-08T07:37:11.595Z,25.48
2024-03-08T07:38:18.429Z,28.89
2024-03-08T07:39:25.228Z,31.46
2024-03-08T07:40:32.011Z,31.36
2024-03-08T07:41:38.818Z,29.37
2024-03-08T07:42:45.631Z,35.34
2024-03-08T07:43:52.438Z,34.78
2024-03-08T07:44:59.293Z,36.89
2024-03-08T07:46:06.528Z,49.71
2024-03-08T07:47:13.301Z,36.71
2024-03-08T07:48:20.113Z,30.63
2024-03-08T07:49:26.923Z,22.59
2024-03-08T07:50:33.873Z,19.65
2024-03-08T07:51:40.791Z,20.03
2024-03-08T07:52:47.579Z,21.49
2024-03-08T07:53:54.350Z,23.41
2024-03-08T07:55:01.147Z,22.38
2024-03-08T07:56:07.940Z,27.68
2024-03-08T07:57:14.719Z,39.11
2024-03-08T07:58:21.570Z,37.87
2024-03-08T07:59:28.430Z,38.76
2024-03-08T08:00:35.201Z,42.52
2024-03-08T08:01:42.163Z,43.66
2024-03-08T08:02:49.018Z,46.30
2024-03-08T08:03:55.822Z,35.74
2024-03-08T08:05:02.594Z,28.93
2024-03-08T08:06:09.418Z,27.97
2024-03-08T08:07:16.275Z,22.00
2024-03-08T08:08:23.064Z,20.76
2024-03-08T08:09:30.087Z,23.13
2024-03-08T08:10:37.046Z,25.13
2024-03-08T08:11:43.873Z,24.09
2024-03-08T08:12:50.614Z,24.32
2024-03-08T08:13:57.405Z,19.51
2024-03-08T08:15:04.171Z,20.96
2024-03-08T08:16:10.992Z,19.62
2024-03-08T08:17:18.014Z,19.57
2024-03-08T08:18:24.817Z,20.28
2024-03-08T08:19:31.630Z,21.21
2024-03-08T08:20:38.431Z,21.74
2024-03-08T08:21:45.235Z,21.45
2024-03-08T08:22:52.041Z,20.34
2024-03-08T08:23:58.916Z,20.88
2024-03-08T08:25:05.705Z,23.70
2024-03-08T08:26:12.588Z,27.27
2024-03-08T08:27:19.388Z,28.11
2024-03-08T08:28:26.151Z,25.29
2024-03-08T08:29:32.938Z,23.80
2024-03-08T08:30:39.759Z,23.07
2024-03-08T08:31:46.632Z,27.67
2024-03-08T08:32:53.449Z,30.53
2024-03-08T08:34:00.228Z,27.70
2024-03-08T08:35:07.183Z,29.88
2024-03-08T08:36:13.977Z,29.06
2024-03-08T08:37:22.036Z,29.43
2024-03-08T08:38:29.745Z,37.25
2024-03-08T08:39:36.539Z,36.34
2024-03-08T08:40:43.386Z,36.03
2024-03-08T08:41:50.184Z,36.50
2024-03-08T08:42:57.007Z,34.36
2024-03-08T08:44:14.663Z,30.08
2024-03-08T08:45:17.373Z,32.36
2024-03-08T08:46:25.217Z,32.43
2024-03-08T08:47:32.102Z,42.23
2024-03-08T08:48:38.878Z,39.19
2024-03-08T08:49:45.714Z,37.86
2024-03-08T08:50:52.561Z,34.97
2024-03-08T08:52:06.360Z,37.50
2024-03-08T08:53:11.141Z,38.53
2024-03-08T08:54:17.936Z,34.17
2024-03-08T08:55:24.793Z,36.45
2024-03-08T08:56:31.627Z,39.81
2024-03-08T08:57:38.434Z,39.72
2024-03-08T08:58:45.238Z,40.15
2024-03-08T08:59:52.040Z,46.77
2024-03-08T09:00:58.897Z,49.91
2024-03-08T09:02:05.883Z,36.28
2024-03-08T09:03:12.812Z,40.87
2024-03-08T09:04:19.602Z,42.99
2024-03-08T09:05:26.392Z,38.38
2024-03-08T09:06:33.201Z,42.37
2024-03-08T09:07:40.084Z,40.56
2024-03-08T09:08:46.937Z,47.31
2024-03-08T09:09:53.793Z,47.83
2024-03-08T09:11:00.629Z,40.79
2024-03-08T09:12:07.547Z,42.66
2024-03-08T09:13:18.685Z,48.61
2024-03-08T09:14:26.055Z,43.75
2024-03-08T09:15:32.949Z,44.94
2024-03-08T09:16:39.818Z,43.78
2024-03-08T09:17:46.719Z,42.87
2024-03-08T09:18:53.456Z,45.84
2024-03-08T09:20:00.337Z,42.56
2024-03-08T09:21:07.123Z,40.96
2024-03-08T09:22:13.934Z,46.05
2024-03-08T09:23:20.770Z,47.09
2024-03-08T09:24:27.557Z,47.44
2024-03-08T09:25:34.397Z,47.00
2024-03-08T09:26:41.263Z,47.97
2024-03-08T09:27:48.091Z,49.05
2024-03-08T09:28:54.984Z,49.64
2024-03-08T09:30:01.797Z,53.59
2024-03-08T09:31:08.596Z,47.84
2024-03-08T09:32:15.360Z,48.07
2024-03-08T09:33:22.223Z,51.05
2024-03-08T09:34:36.490Z,48.70
2024-03-08T09:35:40.677Z,52.67
2024-03-08T09:36:47.502Z,58.77
2024-03-08T09:37:54.343Z,65.32
2024-03-08T09:39:01.119Z,59.86
2024-03-08T09:40:07.946Z,58.87
2024-03-08T09:41:14.730Z,62.56
2024-03-08T09:42:21.522Z,53.85
2024-03-08T09:43:28.379Z,57.02
2024-03-08T09:44:35.152Z,70.98
2024-03-08T09:45:41.994Z,75.48
2024-03-08T09:46:48.789Z,83.05
2024-03-08T09:47:55.744Z,94.41
2024-03-08T09:49:02.522Z,92.62
2024-03-08T09:50:09.321Z,97.90
2024-03-08T09:51:16.500Z,102.31
2024-03-08T09:52:23.326Z,107.17
2024-03-08T09:53:30.170Z,104.17
2024-03-08T09:54:37.024Z,100.62
2024-03-08T09:55:43.971Z,93.14
2024-03-08T09:56:50.813Z,75.94
2024-03-08T09:57:57.630Z,68.02
2024-03-08T09:59:04.527Z,62.83
2024-03-08T10:00:11.338Z,58.09
2024-03-08T10:01:18.177Z,52.06
2024-03-08T10:02:25.178Z,50.81
2024-03-08T10:03:32.064Z,46.52
2024-03-08T10:04:38.954Z,45.75
2024-03-08T10:05:45.841Z,51.33
2024-03-08T10:06:52.659Z,45.24
2024-03-08T10:07:59.478Z,45.26
2024-03-08T10:09:06.254Z,45.86
2024-03-08T10:10:13.261Z,47.42
2024-03-08T10:11:20.241Z,49.77
2024-03-08T10:12:27.028Z,50.28
2024-03-08T10:13:33.860Z,52.39
2024-03-08T10:14:40.670Z,54.97
2024-03-08T10:15:47.627Z,56.29
2024-03-08T10:16:54.507Z,55.60
2024-03-08T10:18:01.322Z,62.14
2024-03-08T10:19:08.110Z,67.03
2024-03-08T10:20:14.882Z,67.07
2024-03-08T10:21:21.711Z,70.33
2024-03-08T10:22:28.512Z,69.64
2024-03-08T10:23:35.374Z,72.24
2024-03-08T10:24:42.228Z,69.94
2024-03-08T10:25:49.109Z,72.02
2024-03-08T10:26:55.968Z,57.23
2024-03-08T10:28:02.803Z,43.94
2024-03-08T10:29:09.589Z,37.66
2024-03-08T10:30:16.404Z,39.27
2024-03-08T10:31:23.238Z,43.34
2024-03-08T10:32:30.071Z,32.93
2024-03-08T10:33:36.859Z,22.90
2024-03-08T10:34:43.734Z,19.04
2024-03-08T10:35:50.545Z,25.06
2024-03-08T10:36:57.329Z,22.92
2024-03-08T10:38:04.174Z,22.21
2024-03-08T10:39:10.996Z,15.97
2024-03-08T10:40:17.863Z,12.92
2024-03-08T10:41:24.636Z,15.89
2024-03-08T10:42:31.445Z,14.64
2024-03-08T10:43:38.381Z,15.93
2024-03-08T10:44:45.225Z,17.88
2024-03-08T10:45:52.057Z,22.23
2024-03-08T10:46:58.906Z,20.89
2024-03-08T10:48:05.779Z,19.68
2024-03-08T10:49:12.694Z,21.08
2024-03-08T10:50:19.546Z,23.55
2024-03-08T10:51:26.329Z,25.49
2024-03-08T10:52:33.305Z,30.53
2024-03-08T10:53:40.176Z,39.10
2024-03-08T10:54:46.981Z,40.35
2024-03-08T10:55:53.805Z,37.94
2024-03-08T10:57:00.645Z,42.00
2024-03-08T10:58:07.405Z,38.45
2024-03-08T10:59:14.216Z,36.72
2024-03-08T11:00:21.049Z,32.55
2024-03-08T11:01:28.110Z,33.34
2024-03-08T11:02:34.865Z,31.94
2024-03-08T11:03:41.692Z,26.94
2024-03-08T11:04:48.505Z,27.53
2024-03-08T11:05:55.320Z,41.20
2024-03-08T11:07:02.133Z,34.47
2024-03-08T11:08:08.957Z,33.11
2024-03-08T11:09:15.726Z,43.89
2024-03-08T11:10:22.521Z,45.32
2024-03-08T11:11:33.385Z,43.56
2024-03-08T11:12:41.063Z,44.35
2024-03-08T11:13:48.264Z,34.49
2024-03-08T11:14:55.092Z,27.32
2024-03-08T11:16:01.966Z,23.56
2024-03-08T11:17:08.809Z,29.15
2024-03-08T11:18:15.673Z,43.45
2024-03-08T11:19:22.481Z,47.40
2024-03-08T11:20:29.272Z,53.22
2024-03-08T11:21:36.046Z,52.76
2024-03-08T11:22:43.007Z,49.96
2024-03-08T11:23:49.892Z,44.30
2024-03-08T11:24:56.740Z,34.58
2024-03-08T11:26:03.525Z,35.40
2024-03-08T11:27:10.280Z,28.94
2024-03-08T11:28:17.139Z,24.12
2024-03-08T11:29:23.908Z,20.81
2024-03-08T11:30:30.690Z,15.64
2024-03-08T11:31:37.599Z,14.62
2024-03-08T11:32:44.411Z,13.32
2024-03-08T11:33:51.216Z,12.96
2024-03-08T11:34:58.054Z,12.84
2024-03-08T11:36:06.880Z,11.31
2024-03-08T11:37:14.979Z,11.87
2024-03-08T11:38:21.760Z,11.51
2024-03-08T11:39:28.589Z,12.55
2024-03-08T11:40:35.547Z,11.66
2024-03-08T11:41:42.455Z,10.38
2024-03-08T11:42:49.554Z,13.09
2024-03-08T11:43:56.743Z,11.27
2024-03-08T11:45:03.640Z,10.03
2024-03-08T11:46:10.472Z,9.77
2024-03-08T11:47:17.425Z,11.51
2024-03-08T11:48:24.472Z,11.62
2024-03-08T11:49:31.314Z,11.69
2024-03-08T11:50:38.100Z,12.31
2024-03-08T11:51:44.932Z,13.16
2024-03-08T11:52:51.750Z,15.50
2024-03-08T11:53:58.620Z,14.25
2024-03-08T11:55:05.440Z,13.37
2024-03-08T11:56:12.337Z,13.73
2024-03-08T11:57:19.232Z,21.64
2024-03-08T11:58:26.085Z,22.72
2024-03-08T11:59:32.870Z,24.44
2024-03-08T12:00:39.681Z,13.26
2024-03-08T12:01:46.541Z,17.38
2024-03-08T12:02:53.449Z,23.62
2024-03-08T12:04:00.449Z,48.99
2024-03-08T12:05:07.432Z,114.44
2024-03-08T12:06:14.208Z,144.31
2024-03-08T12:07:21.100Z,195.26
2024-03-08T12:08:27.944Z,171.42
2024-03-08T12:09:34.721Z,145.10
2024-03-08T12:10:41.578Z,132.54
2024-03-08T12:11:48.500Z,119.39
2024-03-08T12:12:55.401Z,100.60
2024-03-08T12:14:02.218Z,123.20
2024-03-08T12:15:08.996Z,93.82
2024-03-08T12:16:15.838Z,58.94
2024-03-08T12:17:22.643Z,41.81
2024-03-08T12:18:29.438Z,38.50
2024-03-08T12:19:36.281Z,33.85
2024-03-08T12:20:43.097Z,32.35
2024-03-08T12:21:50.021Z,30.18
2024-03-08T12:22:56.917Z,25.10
2024-03-08T12:24:03.790Z,23.92
2024-03-08T12:25:10.658Z,27.67
2024-03-08T12:26:17.455Z,31.91
2024-03-08T12:27:24.219Z,26.84
2024-03-08T12:28:31.028Z,23.41
2024-03-08T12:29:37.902Z,24.37
2024-03-08T12:30:44.694Z,24.61
2024-03-08T12:31:51.578Z,21.75
2024-03-08T12:32:58.559Z,21.23
2024-03-08T12:34:05.516Z,24.86
2024-03-08T12:35:12.401Z,24.15
2024-03-08T12:36:19.227Z,23.02
2024-03-08T12:37:26.036Z,21.91
2024-03-08T12:38:33.107Z,22.09
2024-03-08T12:39:39.987Z,22.39
2024-03-08T12:40:46.891Z,23.92
2024-03-08T12:41:53.707Z,23.95
2024-03-08T12:43:00.525Z,23.41
2024-03-08T12:44:07.346Z,21.83
2024-03-08T12:45:14.112Z,23.47
2024-03-08T12:46:20.913Z,20.14
2024-03-08T12:47:27.762Z,21.54
2024-03-08T12:48:34.561Z,25.61
2024-03-08T12:49:41.436Z,24.59
2024-03-08T12:50:48.200Z,22.18
2024-03-08T12:51:55.039Z,22.42
2024-03-08T12:53:02.434Z,20.98
2024-03-08T12:54:09.953Z,25.37
2024-03-08T12:55:16.776Z,22.57
2024-03-08T12:56:23.569Z,22.17
2024-03-08T12:57:30.340Z,24.21
2024-03-08T12:58:37.233Z,27.16
2024-03-08T12:59:44.049Z,21.71
2024-03-08T13:00:54.049Z,23.93
2024-03-08T13:02:01.420Z,21.84
2024-03-08T13:03:08.362Z,24.64
2024-03-08T13:04:15.315Z,24.24
2024-03-08T13:05:22.202Z,32.93
2024-03-08T13:06:28.998Z,40.46
2024-03-08T13:07:35.828Z,55.36
2024-03-08T13:08:42.685Z,69.52
2024-03-08T13:09:49.511Z,76.55
2024-03-08T13:10:56.521Z,62.20
2024-03-08T13:12:03.571Z,51.09
2024-03-08T13:13:10.398Z,46.99
2024-03-08T13:14:17.249Z,50.64
2024-03-08T13:15:24.022Z,48.04
2024-03-08T13:16:31.029Z,60.45
2024-03-08T13:17:37.848Z,85.21
2024-03-08T13:18:44.701Z,136.00
2024-03-08T13:19:51.611Z,218.36
2024-03-08T13:20:58.441Z,269.70
2024-03-08T13:22:05.241Z,271.98
2024-03-08T13:23:12.040Z,235.16
2024-03-08T13:24:18.838Z,181.02
2024-03-08T13:25:25.683Z,133.96
2024-03-08T13:26:32.570Z,116.53
2024-03-08T13:27:39.435Z,102.49
2024-03-08T13:28:46.312Z,89.47
2024-03-08T13:29:53.145Z,83.44
2024-03-08T13:31:02.209Z,75.49
2024-03-08T13:32:10.978Z,63.21
2024-03-08T13:33:17.787Z,59.13
2024-03-08T13:34:24.631Z,53.51
2024-03-08T13:35:31.649Z,51.65
2024-03-08T13:36:38.605Z,48.84
2024-03-08T13:37:45.510Z,47.95
2024-03-08T13:38:52.293Z,48.63
2024-03-08T13:39:59.182Z,48.48
2024-03-08T13:41:06.254Z,44.92
2024-03-08T13:42:13.182Z,47.36
2024-03-08T13:43:20.040Z,46.22
2024-03-08T13:44:26.839Z,42.89
2024-03-08T13:45:33.602Z,39.63
2024-03-08T13:46:40.422Z,38.62
2024-03-08T13:47:47.284Z,37.36
2024-03-08T13:48:54.093Z,38.74
2024-03-08T13:50:00.961Z,37.95
2024-03-08T13:51:07.811Z,36.00
2024-03-08T13:52:14.639Z,39.74
2024-03-08T13:53:21.462Z,47.57
2024-03-08T13:54:28.378Z,53.09
2024-03-08T13:55:35.283Z,63.45
2024-03-08T13:56:42.061Z,78.61
2024-03-08T13:57:48.893Z,91.37
2024-03-08T13:58:55.729Z,94.85
2024-03-08T14:00:02.480Z,95.81
2024-03-08T14:01:09.295Z,90.49
2024-03-08T14:02:16.191Z,84.25
2024-03-08T14:03:23.020Z,74.41
2024-03-08T14:04:29.918Z,79.82
2024-03-08T14:05:36.832Z,82.31
2024-03-08T14:06:43.587Z,82.09
2024-03-08T14:07:51.128Z,94.81
2024-03-08T14:08:58.283Z,104.14
2024-03-08T14:10:05.161Z,104.94
2024-03-08T14:11:12.063Z,112.84
2024-03-08T14:12:20.155Z,122.46
2024-03-08T14:13:27.474Z,125.44
2024-03-08T14:14:34.293Z,135.95
2024-03-08T14:15:41.153Z,132.68
2024-03-08T14:16:48.104Z,129.51
2024-03-08T14:17:55.003Z,131.37
2024-03-08T14:19:03.483Z,129.26
2024-03-08T14:20:11.003Z,131.50
2024-03-08T14:21:17.884Z,127.64
2024-03-08T14:22:24.803Z,128.45